createdAt,value
2018-07-17T00:01:31.224Z,5.15
2018-07-17T00:04:03.504Z,5.70
2018-07-17T00:06:32.615Z,5.30
2018-07-17T00:09:02.196Z,5.85
2018-07-17T00:11:31.042Z,5.40
2018-07-17T00:13:59.899Z,5.37
2018-07-17T00:16:29.482Z,4.80
2018-07-17T00:18:58.333Z,4.30
2018-07-17T00:21:27.171Z,4.32
2018-07-17T00:23:56.031Z,4.30
2018-07-17T00:26:24.874Z,4.62
2018-07-17T00:28:53.710Z,4.57
2018-07-17T00:31:22.541Z,4.68
2018-07-17T00:33:51.374Z,5.12
2018-07-17T00:36:20.213Z,4.53
2018-07-17T00:38:49.790Z,4.35
2018-07-17T00:41:18.628Z,4.78
2018-07-17T00:43:47.477Z,4.28
2018-07-17T00:46:16.328Z,4.20
2018-07-17T00:48:45.162Z,4.68
2018-07-17T00:51:14.601Z,4.57
2018-07-17T00:53:43.451Z,4.32
2018-07-17T00:56:12.285Z,4.20
2018-07-17T00:58:41.126Z,4.70
2018-07-17T01:01:09.432Z,4.20
2018-07-17T01:03:43.763Z,4.18
2018-07-17T01:06:18.191Z,4.40
2018-07-17T01:08:52.646Z,4.60
2018-07-17T01:11:27.109Z,4.68
2018-07-17T01:13:56.695Z,4.37
2018-07-17T01:16:25.617Z,4.53
2018-07-17T01:18:54.462Z,4.85
2018-07-17T01:21:23.294Z,4.30
2018-07-17T01:23:52.145Z,4.43
2018-07-17T01:26:20.984Z,4.55
2018-07-17T01:28:49.816Z,5.10
2018-07-17T01:31:18.658Z,4.80
2018-07-17T01:33:47.526Z,5.25
2018-07-17T01:36:16.333Z,4.68
2018-07-17T01:38:45.170Z,4.80
2018-07-17T01:41:14.010Z,5.10
2018-07-17T01:43:42.848Z,4.82
2018-07-17T01:46:11.677Z,4.90
2018-07-17T01:48:40.520Z,4.95
2018-07-17T01:51:09.376Z,4.82
2018-07-17T01:53:38.208Z,4.70
2018-07-17T01:56:07.042Z,4.90
2018-07-17T01:58:35.891Z,5.37
2018-07-17T02:01:04.739Z,4.95
2018-07-17T02:03:33.568Z,4.82
2018-07-17T02:06:02.417Z,5.43
2018-07-17T02:08:31.251Z,5.70
2018-07-17T02:11:00.106Z,5.15
2018-07-17T02:13:28.937Z,5.50
2018-07-17T02:15:58.518Z,5.05
2018-07-17T02:18:27.368Z,5.03
2018-07-17T02:20:56.209Z,5.20
2018-07-17T02:23:25.043Z,5.00
2018-07-17T02:25:53.891Z,4.80
2018-07-17T02:28:22.725Z,4.62
2018-07-17T02:30:51.565Z,4.78
2018-07-17T02:33:20.404Z,4.97
2018-07-17T02:35:49.250Z,4.95
2018-07-17T02:38:18.100Z,5.25
2018-07-17T02:40:46.932Z,4.50
2018-07-17T02:43:15.782Z,5.37
2018-07-17T02:45:44.621Z,5.50
2018-07-17T02:48:13.491Z,5.10
2018-07-17T02:50:42.340Z,5.60
2018-07-17T02:53:11.183Z,5.50
2018-07-17T02:55:40.037Z,4.82
2018-07-17T02:58:08.877Z,5.12
2018-07-17T03:00:37.719Z,5.18
2018-07-17T03:03:06.564Z,4.90
2018-07-17T03:05:35.550Z,5.28
2018-07-17T03:08:04.283Z,5.03
2018-07-17T03:10:33.126Z,5.80
2018-07-17T03:13:01.991Z,5.20
2018-07-17T03:15:30.840Z,5.53
2018-07-17T03:17:59.677Z,5.93
2018-07-17T03:20:28.548Z,5.32
2018-07-17T03:22:57.440Z,5.80
2018-07-17T03:25:26.284Z,4.70
2018-07-17T03:27:55.123Z,5.05
2018-07-17T03:30:24.716Z,5.68
2018-07-17T03:32:53.553Z,5.37
2018-07-17T03:35:22.400Z,4.95
2018-07-17T03:37:51.240Z,5.50
2018-07-17T03:40:20.295Z,5.32
2018-07-17T03:42:49.137Z,5.85
2018-07-17T03:45:17.976Z,5.47
2018-07-17T03:47:46.816Z,4.82
2018-07-17T03:50:15.649Z,4.95
2018-07-17T03:52:44.473Z,5.07
2018-07-17T03:57:45.185Z,5.30
2018-07-17T04:00:14.006Z,5.07
2018-07-17T04:02:42.892Z,5.18
2018-07-17T04:05:11.720Z,5.20
2018-07-17T04:07:40.545Z,5.53
2018-07-17T04:10:09.402Z,5.53
2018-07-17T04:12:38.258Z,5.87
2018-07-17T04:15:07.096Z,5.25
2018-07-17T04:17:35.941Z,5.20
2018-07-17T04:20:04.783Z,5.20
2018-07-17T04:22:33.623Z,5.60
2018-07-17T04:25:02.457Z,5.50
2018-07-17T04:27:31.290Z,5.40
2018-07-17T04:30:00.129Z,5.57
2018-07-17T04:32:28.969Z,6.20
2018-07-17T04:34:57.828Z,5.47
2018-07-17T04:37:27.406Z,5.60
2018-07-17T04:39:56.246Z,6.22
2018-07-17T04:42:25.094Z,5.83
2018-07-17T04:44:54.773Z,5.40
2018-07-17T04:47:23.532Z,5.13
2018-07-17T04:49:52.370Z,5.50
2018-07-17T04:52:21.209Z,5.73
2018-07-17T04:54:50.053Z,5.77
2018-07-17T04:57:18.874Z,6.07
2018-07-17T04:59:47.718Z,5.53
2018-07-17T05:02:16.549Z,5.57
2018-07-17T05:04:45.421Z,5.50
2018-07-17T05:07:14.297Z,6.15
2018-07-17T05:09:43.093Z,6.40
2018-07-17T05:12:11.931Z,5.77
2018-07-17T05:14:40.767Z,6.43
2018-07-17T05:17:09.599Z,6.05
2018-07-17T05:19:38.435Z,6.43
2018-07-17T05:22:07.271Z,6.47
2018-07-17T05:24:36.116Z,6.20
2018-07-17T05:27:04.973Z,5.90
2018-07-17T05:29:33.812Z,6.47
2018-07-17T05:32:02.665Z,6.60
2018-07-17T05:34:31.491Z,6.00
2018-07-17T05:37:00.337Z,7.17
2018-07-17T05:39:29.213Z,6.37
2018-07-17T05:41:58.067Z,7.30
2018-07-17T05:44:27.046Z,6.90
2018-07-17T05:46:55.896Z,6.50
2018-07-17T05:49:24.740Z,7.60
2018-07-17T05:51:53.605Z,7.47
2018-07-17T05:54:22.427Z,7.30
2018-07-17T05:56:52.010Z,6.97
2018-07-17T05:59:20.876Z,6.87
2018-07-17T06:01:49.705Z,7.15
2018-07-17T06:04:18.693Z,7.47
2018-07-17T06:06:47.535Z,7.25
2018-07-17T06:09:16.377Z,7.70
2018-07-17T06:11:45.231Z,6.87
2018-07-17T06:14:14.060Z,8.00
2018-07-17T06:16:42.895Z,7.20
2018-07-17T06:19:11.745Z,7.30
2018-07-17T06:21:41.330Z,6.65
2018-07-17T06:24:10.177Z,7.57
2018-07-17T06:26:39.017Z,6.47
2018-07-17T06:29:07.849Z,7.43
2018-07-17T06:31:36.695Z,6.53
2018-07-17T06:34:05.541Z,7.03
2018-07-17T06:36:34.379Z,7.55
2018-07-17T06:39:03.223Z,7.18
2018-07-17T06:41:32.059Z,7.18
2018-07-17T06:44:00.899Z,7.50
2018-07-17T06:46:29.885Z,7.35
2018-07-17T06:48:59.322Z,7.90
2018-07-17T06:51:28.168Z,7.43
2018-07-17T06:53:56.993Z,7.65
2018-07-17T06:56:25.833Z,7.53
2018-07-17T06:58:54.686Z,6.80
2018-07-17T07:01:24.273Z,8.27
2018-07-17T07:03:53.111Z,7.60
2018-07-17T07:06:22.705Z,7.60
2018-07-17T07:08:52.289Z,8.20
2018-07-17T07:11:21.157Z,7.53
2018-07-17T07:13:49.963Z,7.85
2018-07-17T07:16:18.814Z,7.15
2018-07-17T07:18:47.667Z,7.55
2018-07-17T07:21:16.491Z,7.37
2018-07-17T07:23:45.331Z,7.43
2018-07-17T07:26:14.179Z,7.35
2018-07-17T07:28:43.014Z,6.90
2018-07-17T07:31:11.979Z,7.15
2018-07-17T07:33:40.731Z,7.07
2018-07-17T07:36:09.560Z,5.62
2018-07-17T07:38:38.392Z,6.85
2018-07-17T07:41:07.238Z,6.05
2018-07-17T07:43:36.091Z,5.82
2018-07-17T07:46:04.946Z,6.25
2018-07-17T07:48:33.824Z,6.70
2018-07-17T07:51:02.643Z,5.78
2018-07-17T07:53:31.482Z,6.20
2018-07-17T07:56:00.315Z,5.78
2018-07-17T07:58:29.902Z,5.53
2018-07-17T08:00:58.755Z,5.40
2018-07-17T08:03:27.614Z,5.28
2018-07-17T08:05:57.180Z,5.20
2018-07-17T08:08:26.023Z,5.07
2018-07-17T08:10:54.871Z,5.55
2018-07-17T08:13:23.715Z,5.03
2018-07-17T08:15:52.553Z,4.95
2018-07-17T08:18:22.191Z,4.60
2018-07-17T08:20:51.032Z,5.00
2018-07-17T08:23:19.885Z,4.78
2018-07-17T08:25:48.718Z,4.97
2018-07-17T08:28:17.606Z,4.55
2018-07-17T08:30:46.409Z,4.75
2018-07-17T08:33:15.984Z,4.70
2018-07-17T08:35:44.863Z,4.82
2018-07-17T08:38:13.662Z,4.32
2018-07-17T08:40:42.517Z,4.47
2018-07-17T08:43:11.425Z,4.68
2018-07-17T08:45:41.025Z,4.70
2018-07-17T08:48:09.886Z,4.50
2018-07-17T08:50:38.732Z,4.57
2018-07-17T08:53:07.573Z,4.55
2018-07-17T08:55:36.424Z,4.78
2018-07-17T08:58:05.271Z,4.80
2018-07-17T09:00:34.147Z,4.40
2018-07-17T09:03:02.965Z,4.82
2018-07-17T09:05:31.807Z,4.20
2018-07-17T09:08:01.385Z,4.50
2018-07-17T09:10:30.241Z,4.40
2018-07-17T09:12:59.086Z,4.30
2018-07-17T09:15:27.926Z,4.03
2018-07-17T09:17:56.758Z,4.50
2018-07-17T09:20:25.617Z,4.37
2018-07-17T09:22:54.461Z,4.85
2018-07-17T09:25:23.343Z,4.70
2018-07-17T09:27:52.143Z,4.40
2018-07-17T09:30:20.977Z,4.68
2018-07-17T09:32:49.816Z,4.78
2018-07-17T09:35:18.668Z,4.47
2018-07-17T09:37:47.506Z,4.30
2018-07-17T09:40:16.353Z,4.95
2018-07-17T09:42:45.190Z,4.50
2018-07-17T09:45:14.037Z,4.30
2018-07-17T09:47:42.887Z,4.78
2018-07-17T09:50:11.723Z,4.20
2018-07-17T09:52:40.568Z,4.43
2018-07-17T09:55:09.403Z,4.55
2018-07-17T09:57:38.238Z,4.30
2018-07-17T10:00:07.086Z,5.07
2018-07-17T10:02:35.937Z,5.40
2018-07-17T10:05:04.777Z,4.97
2018-07-17T10:07:33.625Z,4.53
2018-07-17T10:10:02.491Z,4.90
2018-07-17T10:12:31.339Z,4.60
2018-07-17T10:15:00.200Z,4.50
2018-07-17T10:17:29.040Z,4.93
2018-07-17T10:19:58.651Z,4.65
2018-07-17T10:22:27.491Z,4.87
2018-07-17T10:24:56.338Z,4.40
2018-07-17T10:27:25.196Z,4.55
2018-07-17T10:29:54.051Z,4.32
2018-07-17T10:32:22.897Z,4.65
2018-07-17T10:34:52.718Z,4.25
2018-07-17T10:37:21.323Z,4.37
2018-07-17T10:39:50.177Z,4.80
2018-07-17T10:42:19.037Z,4.05
2018-07-17T10:44:47.938Z,4.15
2018-07-17T10:47:16.724Z,4.25
2018-07-17T10:49:45.585Z,4.18
2018-07-17T10:52:14.424Z,4.60
2018-07-17T10:54:44.001Z,4.30
2018-07-17T10:57:12.848Z,4.22
2018-07-17T10:59:41.695Z,4.43
2018-07-17T11:02:10.530Z,4.57
2018-07-17T11:04:39.374Z,4.10
2018-07-17T11:07:08.210Z,4.03
2018-07-17T11:09:37.056Z,3.80
2018-07-17T11:12:05.892Z,3.10
2018-07-17T11:14:34.723Z,2.83
2018-07-17T11:17:03.553Z,2.80
2018-07-17T11:19:32.382Z,3.58
2018-07-17T11:22:01.219Z,3.17
2018-07-17T11:24:30.056Z,3.33
2018-07-17T11:26:58.895Z,3.42
2018-07-17T11:29:28.491Z,3.90
2018-07-17T11:31:57.347Z,3.72
2018-07-17T11:34:26.207Z,4.30
2018-07-17T11:36:55.783Z,3.83
2018-07-17T11:39:24.642Z,3.78
2018-07-17T11:41:53.477Z,4.80
2018-07-17T11:44:22.419Z,3.70
2018-07-17T11:46:51.271Z,4.37
2018-07-17T11:49:20.114Z,4.07
2018-07-17T11:51:48.972Z,4.07
2018-07-17T11:54:17.810Z,4.07
2018-07-17T11:56:46.645Z,3.40
2018-07-17T11:59:15.536Z,3.58
2018-07-17T12:01:44.373Z,3.80
2018-07-17T12:04:13.962Z,3.90
2018-07-17T12:06:42.812Z,3.62
2018-07-17T12:09:11.666Z,3.78
2018-07-17T12:11:40.508Z,4.12
2018-07-17T12:14:09.345Z,4.80
2018-07-17T12:16:38.193Z,7.05
2018-07-17T12:19:07.046Z,4.72
2018-07-17T12:21:35.905Z,4.03
2018-07-17T12:24:05.479Z,4.05
2018-07-17T12:26:34.321Z,5.22
2018-07-17T12:29:03.164Z,4.53
2018-07-17T12:31:31.999Z,3.50
2018-07-17T12:34:01.582Z,3.78
2018-07-17T12:36:30.430Z,3.55
2018-07-17T12:38:59.271Z,2.92
2018-07-17T12:41:28.116Z,4.50
2018-07-17T12:43:56.954Z,3.75
2018-07-17T12:46:25.805Z,4.12
2018-07-17T12:48:54.650Z,4.75
2018-07-17T12:51:23.479Z,3.75
2018-07-17T12:53:52.332Z,4.50
2018-07-17T12:56:21.197Z,4.65
2018-07-17T12:58:50.024Z,4.68
2018-07-17T13:01:19.615Z,4.20
2018-07-17T13:03:48.517Z,3.90
2018-07-17T13:06:17.308Z,4.65
2018-07-17T13:08:46.151Z,4.85
2018-07-17T13:11:15.000Z,4.68
2018-07-17T13:13:43.844Z,5.00
2018-07-17T13:16:12.693Z,5.28
2018-07-17T13:18:41.542Z,5.00
2018-07-17T13:21:10.387Z,4.90
2018-07-17T13:23:39.241Z,5.40
2018-07-17T13:26:08.821Z,3.10
2018-07-17T13:28:38.254Z,2.42
2018-07-17T13:31:07.831Z,3.65
2018-07-17T13:33:36.673Z,4.40
2018-07-17T13:36:05.526Z,4.05
2018-07-17T13:38:34.375Z,3.50
2018-07-17T13:41:03.219Z,3.70
2018-07-17T13:43:32.796Z,3.40
2018-07-17T13:46:01.641Z,2.97
2018-07-17T13:48:30.495Z,3.40
2018-07-17T13:50:59.351Z,3.78
2018-07-17T13:53:28.194Z,3.17
2018-07-17T13:55:57.797Z,3.30
2018-07-17T13:58:26.638Z,3.22
2018-07-17T14:00:55.487Z,3.58
2018-07-17T14:03:24.329Z,3.90
2018-07-17T14:05:53.916Z,3.60
2018-07-17T14:08:23.343Z,3.42
2018-07-17T14:10:52.194Z,3.78
2018-07-17T14:13:21.068Z,3.35
2018-07-17T14:15:50.181Z,3.30
2018-07-17T14:18:19.032Z,4.15
2018-07-17T14:20:47.878Z,3.58
2018-07-17T14:23:16.723Z,3.42
2018-07-17T14:25:45.559Z,3.20
2018-07-17T14:28:14.408Z,3.42
2018-07-17T14:30:43.258Z,3.55
2018-07-17T14:33:12.861Z,2.95
2018-07-17T14:35:41.717Z,3.00
2018-07-17T14:38:10.564Z,3.30
2018-07-17T14:40:39.411Z,3.50
2018-07-17T14:43:09.003Z,2.97
2018-07-17T14:45:37.847Z,3.23
2018-07-17T14:48:06.712Z,2.97
2018-07-17T14:50:35.526Z,3.17
2018-07-17T14:53:04.371Z,3.10
2018-07-17T14:55:33.208Z,3.22
2018-07-17T14:58:02.058Z,3.37
2018-07-17T15:00:30.909Z,2.60
2018-07-17T15:02:59.744Z,2.50
2018-07-17T15:05:29.339Z,2.40
2018-07-17T15:07:58.791Z,2.77
2018-07-17T15:10:27.638Z,2.60
2018-07-17T15:12:56.492Z,2.40
2018-07-17T15:15:25.374Z,2.50
2018-07-17T15:17:54.188Z,2.50
2018-07-17T15:20:23.031Z,2.45
2018-07-17T15:22:51.883Z,2.80
2018-07-17T15:25:20.722Z,2.50
2018-07-17T15:27:50.355Z,2.30
2018-07-17T15:30:19.186Z,2.40
2018-07-17T15:32:48.020Z,2.97
2018-07-17T15:35:16.976Z,2.80
2018-07-17T15:37:45.722Z,2.97
2018-07-17T15:40:14.614Z,3.03
2018-07-17T15:42:43.474Z,2.90
2018-07-17T15:45:12.314Z,2.80
2018-07-17T15:47:41.170Z,3.33
2018-07-17T15:50:10.014Z,3.58
2018-07-17T15:52:38.858Z,3.45
2018-07-17T15:55:07.714Z,3.22
2018-07-17T15:57:36.553Z,3.78
2018-07-17T16:00:05.392Z,3.22
2018-07-17T16:02:34.232Z,3.67
2018-07-17T16:05:03.089Z,3.90
2018-07-17T16:07:31.949Z,3.40
2018-07-17T16:10:01.572Z,2.90
2018-07-17T16:12:30.384Z,2.60
2018-07-17T16:14:59.238Z,3.17
2018-07-17T16:17:28.821Z,3.05
2018-07-17T16:19:57.691Z,3.42
2018-07-17T16:22:26.536Z,2.78
2018-07-17T16:24:56.116Z,2.30
2018-07-17T16:27:24.967Z,2.37
2018-07-17T16:29:53.813Z,2.40
2018-07-17T16:32:23.402Z,2.40
2018-07-17T16:34:52.305Z,2.20
2018-07-17T16:37:21.134Z,2.30
2018-07-17T16:39:49.977Z,2.67
2018-07-17T16:42:18.903Z,2.40
2018-07-17T16:44:47.662Z,2.85
2018-07-17T16:47:16.522Z,2.75
2018-07-17T16:49:45.366Z,2.70
2018-07-17T16:52:14.935Z,2.20
2018-07-17T16:54:44.359Z,2.40
2018-07-17T16:57:13.951Z,2.70
2018-07-17T16:59:42.793Z,2.57
2018-07-17T17:02:11.631Z,2.60
2018-07-17T17:04:40.476Z,2.50
2018-07-17T17:07:09.321Z,2.40
2018-07-17T17:09:38.160Z,2.50
2018-07-17T17:12:07.018Z,2.33
2018-07-17T17:14:36.596Z,2.35
2018-07-17T17:17:05.432Z,2.47
2018-07-17T17:19:34.366Z,2.60
2018-07-17T17:22:03.107Z,2.70
2018-07-17T17:24:32.013Z,2.87
2018-07-17T17:27:00.805Z,3.05
2018-07-17T17:29:29.727Z,3.35
2018-07-17T17:31:58.532Z,3.03
2018-07-17T17:34:27.325Z,2.80
2018-07-17T17:36:56.912Z,2.83
2018-07-17T17:39:25.811Z,3.08
2018-07-17T17:41:54.595Z,2.40
2018-07-17T17:44:23.481Z,2.65
2018-07-17T17:46:52.322Z,2.70
2018-07-17T17:49:21.165Z,2.75
2018-07-17T17:51:50.084Z,2.70
2018-07-17T17:54:18.868Z,2.60
2018-07-17T17:56:48.440Z,2.58
2018-07-17T17:59:17.285Z,2.80
2018-07-17T18:01:46.147Z,2.72
2018-07-17T18:04:14.979Z,2.70
2018-07-17T18:06:43.833Z,2.60
2018-07-17T18:09:12.685Z,2.87
2018-07-17T18:11:41.536Z,5.20
2018-07-17T18:14:10.367Z,6.95
2018-07-17T18:16:39.207Z,4.60
2018-07-17T18:19:08.072Z,3.78
2018-07-17T18:21:36.902Z,3.35
2018-07-17T18:24:05.744Z,3.50
2018-07-17T18:26:35.883Z,3.67
2018-07-17T18:29:05.522Z,3.20
2018-07-17T18:31:34.363Z,3.05
2018-07-17T18:34:03.221Z,3.60
2018-07-17T18:36:32.702Z,3.37
2018-07-17T18:39:01.571Z,3.03
2018-07-17T18:41:30.498Z,3.50
2018-07-17T18:43:59.265Z,3.00
2018-07-17T18:46:28.125Z,3.87
2018-07-17T18:48:57.693Z,3.47
2018-07-17T18:51:26.532Z,3.55
2018-07-17T18:53:55.399Z,3.62
2018-07-17T18:56:24.981Z,4.22
2018-07-17T18:58:53.825Z,4.12
2018-07-17T19:01:22.677Z,4.80
2018-07-17T19:03:52.269Z,4.37
2018-07-17T19:06:21.124Z,4.20
2018-07-17T19:08:49.975Z,4.82
2018-07-17T19:11:18.883Z,4.45
2018-07-17T19:13:47.673Z,4.53
2018-07-17T19:16:16.514Z,4.30
2018-07-17T19:18:45.374Z,4.70
2018-07-17T19:21:14.242Z,4.20
2018-07-17T19:23:43.084Z,4.80
2018-07-17T19:26:12.721Z,4.32
2018-07-17T19:28:41.571Z,4.05
2018-07-17T19:31:10.425Z,4.70
2018-07-17T19:33:39.288Z,4.72
2018-07-17T19:36:08.894Z,4.72
2018-07-17T19:38:38.475Z,4.68
2018-07-17T19:41:07.325Z,4.28
2018-07-17T19:43:36.181Z,4.22
2018-07-17T19:46:05.023Z,4.50
2018-07-17T19:48:33.867Z,4.50
2018-07-17T19:51:03.456Z,4.65
2018-07-17T19:53:32.301Z,4.40
2018-07-17T19:56:01.147Z,5.00
2018-07-17T19:58:30.765Z,4.20
2018-07-17T20:00:59.610Z,4.70
2018-07-17T20:03:28.449Z,4.20
2018-07-17T20:05:58.041Z,4.50
2018-07-17T20:08:27.632Z,4.65
2018-07-17T20:10:56.469Z,4.70
2018-07-17T20:13:25.308Z,4.43
2018-07-17T20:15:54.158Z,4.70
2018-07-17T20:18:23.004Z,4.70
2018-07-17T20:20:51.850Z,4.45
2018-07-17T20:23:20.694Z,4.20
2018-07-17T20:25:49.545Z,4.18
2018-07-17T20:28:18.411Z,3.95
2018-07-17T20:30:47.247Z,4.20
2018-07-17T20:33:16.096Z,3.55
2018-07-17T20:35:44.954Z,4.18
2018-07-17T20:38:13.785Z,4.35
2018-07-17T20:40:42.650Z,3.83
2018-07-17T20:43:11.515Z,4.15
2018-07-17T20:45:40.347Z,4.07
2018-07-17T20:48:09.962Z,3.87
2018-07-17T20:50:38.817Z,4.72
2018-07-17T20:53:07.735Z,4.00
2018-07-17T20:55:37.233Z,3.95
2018-07-17T20:58:06.088Z,4.62
2018-07-17T21:00:34.930Z,3.70
2018-07-17T21:03:03.779Z,4.32
2018-07-17T21:05:32.630Z,3.85
2018-07-17T21:08:01.513Z,4.37
2018-07-17T21:10:30.343Z,4.53
2018-07-17T21:12:59.929Z,4.60
2018-07-17T21:15:28.773Z,4.75
2018-07-17T21:17:57.658Z,4.12
2018-07-17T21:20:26.484Z,4.10
2018-07-17T21:22:55.317Z,4.65
2018-07-17T21:25:24.180Z,4.45
2018-07-17T21:27:53.025Z,4.70
2018-07-17T21:30:21.871Z,4.57
2018-07-17T21:32:50.711Z,4.20
2018-07-17T21:35:19.564Z,4.85
2018-07-17T21:37:48.405Z,4.68
2018-07-17T21:40:17.254Z,4.28
2018-07-17T21:42:46.123Z,4.57
2018-07-17T21:45:14.965Z,4.80
2018-07-17T21:47:43.805Z,4.40
2018-07-17T21:50:12.654Z,4.45
2018-07-17T21:52:41.497Z,4.43
2018-07-17T21:55:10.337Z,4.28
2018-07-17T21:57:39.177Z,4.30
2018-07-17T22:00:08.771Z,4.70
2018-07-17T22:02:37.628Z,4.70
2018-07-17T22:05:06.474Z,4.82
2018-07-17T22:07:35.316Z,4.62
2018-07-17T22:10:04.150Z,3.90
2018-07-17T22:12:32.999Z,4.35
2018-07-17T22:15:01.848Z,4.25
2018-07-17T22:17:30.708Z,4.50
2018-07-17T22:19:59.549Z,3.90
2018-07-17T22:22:28.393Z,4.10
2018-07-17T22:24:57.244Z,4.10
2018-07-17T22:27:26.236Z,4.78
2018-07-17T22:29:54.931Z,3.95
2018-07-17T22:32:23.769Z,4.00
2018-07-17T22:34:52.624Z,4.12
2018-07-17T22:37:21.561Z,3.97
2018-07-17T22:39:50.321Z,3.60
2018-07-17T22:42:19.163Z,3.83
2018-07-17T22:44:48.011Z,3.50
2018-07-17T22:47:17.623Z,4.03
2018-07-17T22:49:46.450Z,4.12
2018-07-17T22:52:15.294Z,3.47
2018-07-17T22:54:44.878Z,3.67
2018-07-17T22:57:13.731Z,3.80
2018-07-17T22:59:42.587Z,3.90
2018-07-17T23:02:11.554Z,3.80
2018-07-17T23:04:40.343Z,3.85
2018-07-17T23:07:09.192Z,3.70
2018-07-17T23:09:38.038Z,3.60
2018-07-17T23:12:07.653Z,3.60
2018-07-17T23:14:36.465Z,3.60
2018-07-17T23:17:05.299Z,3.60
2018-07-17T23:19:34.136Z,3.83
2018-07-17T23:22:02.985Z,3.55
2018-07-17T23:24:31.830Z,3.70
2018-07-17T23:27:00.706Z,3.30
2018-07-17T23:29:29.554Z,3.90
2018-07-17T23:31:58.388Z,3.72
2018-07-17T23:34:27.224Z,3.80
2018-07-17T23:36:56.055Z,4.18
2018-07-17T23:39:25.630Z,3.80
2018-07-17T23:41:54.473Z,3.30
2018-07-17T23:44:23.304Z,3.72
2018-07-17T23:46:52.171Z,3.78
2018-07-17T23:49:21.001Z,4.40
2018-07-17T23:51:49.836Z,3.47
2018-07-17T23:54:18.669Z,3.80
2018-07-17T23:56:47.505Z,3.67
2018-07-17T23:59:16.353Z,3.60
